Station Historical Data
Daily Summary for January 27, 2017 Units:  English    Metric   Both
« Previous Day
Next Day »
Daily Weekly Monthly Yearly Custom
  High: Low: Average:
Temperature: 35.0 °F 29.3 °F 32.2 °F
Dew Point: 30.1 °F 22.1 °F 25.4 °F
Humidity: 86% 64% 76%
Wind Speed: 15.0mph 2.0mph 7.7mph
Wind Gust: 25.0mph - -
Wind- - West
Pressure: 29.69 in 29.62 in -
Precipitation: 0.00 in    
Historical Graphs
 
 
Tabular Data for January 27, 2017
Time Temperature Dew Point Pressure Wind Wind Speed Wind Gust Humidity Rainfall Rate (Hourly)
00:05 35.0 °F 29.8 °F 29.64 in West 8.0 mph 17.0 mph 81% 0.00 in
00:14 34.8 °F 29.9 °F 29.65 in West 10.0 mph 18.0 mph 82% 0.00 in
00:19 34.7 °F 30.1 °F 29.65 in WSW 9.0 mph 13.0 mph 83% 0.00 in
00:24 34.6 °F 29.7 °F 29.65 in WSW 15.0 mph 19.0 mph 82% 0.00 in
00:29 34.6 °F 29.7 °F 29.65 in West 13.0 mph 23.0 mph 82% 0.00 in
00:34 34.6 °F 29.4 °F 29.65 in West 8.0 mph 23.0 mph 81% 0.00 in
00:44 34.5 °F 29.3 °F 29.65 in West 9.0 mph 20.0 mph 81% 0.00 in
00:49 34.5 °F 29.0 °F 29.65 in West 10.0 mph 20.0 mph 80% 0.00 in
00:54 34.4 °F 28.2 °F 29.65 in NW 6.0 mph 19.0 mph 78% 0.00 in
01:04 34.3 °F 28.2 °F 29.65 in West 3.0 mph 16.0 mph 78% 0.00 in
01:09 34.1 °F 27.6 °F 29.65 in WSW 15.0 mph 23.0 mph 77% 0.00 in
01:14 34.0 °F 27.5 °F 29.65 in West 9.0 mph 23.0 mph 77% 0.00 in
01:19 33.8 °F 27.4 °F 29.65 in West 8.0 mph 19.0 mph 77% 0.00 in
01:24 33.7 °F 27.3 °F 29.65 in West 5.0 mph 13.0 mph 77% 0.00 in
01:29 33.6 °F 27.2 °F 29.65 in WNW 6.0 mph 19.0 mph 77% 0.00 in
01:34 33.5 °F 27.1 °F 29.65 in SW 5.0 mph 15.0 mph 77% 0.00 in
01:39 33.6 °F 27.5 °F 29.66 in West 4.0 mph 11.0 mph 78% 0.00 in
01:44 33.6 °F 27.5 °F 29.66 in West 7.0 mph 16.0 mph 78% 0.00 in
01:49 33.6 °F 27.5 °F 29.66 in West 8.0 mph 16.0 mph 78% 0.00 in
01:54 33.7 °F 27.3 °F 29.66 in West 10.0 mph 17.0 mph 77% 0.00 in
01:59 33.7 °F 27.3 °F 29.65 in SW 12.0 mph 15.0 mph 77% 0.00 in
02:04 33.6 °F 26.8 °F 29.66 in WSW 7.0 mph 15.0 mph 76% 0.00 in
02:14 33.5 °F 26.7 °F 29.66 in WSW 7.0 mph 14.0 mph 76% 0.00 in
02:19 33.4 °F 26.6 °F 29.66 in West 5.0 mph 15.0 mph 76% 0.00 in
02:24 33.3 °F 27.2 °F 29.66 in WSW 13.0 mph 14.0 mph 78% 0.00 in
02:29 33.3 °F 27.5 °F 29.66 in SW 5.0 mph 13.0 mph 79% 0.00 in
02:34 33.2 °F 27.4 °F 29.66 in West 6.0 mph 15.0 mph 79% 0.00 in
02:39 33.2 °F 27.4 °F 29.66 in WSW 7.0 mph 20.0 mph 79% 0.00 in
02:54 33.2 °F 27.1 °F 29.66 in West 9.0 mph 20.0 mph 78% 0.00 in
02:59 33.2 °F 27.1 °F 29.66 in West 9.0 mph 20.0 mph 78% 0.00 in
03:04 33.2 °F 27.1 °F 29.67 in West 7.0 mph 18.0 mph 78% 0.00 in
03:09 33.2 °F 26.8 °F 29.66 in West 8.0 mph 18.0 mph 77% 0.00 in
03:14 33.3 °F 26.9 °F 29.66 in West 10.0 mph 15.0 mph 77% 0.00 in
03:24 33.2 °F 26.5 °F 29.66 in SW 10.0 mph 19.0 mph 76% 0.00 in
03:29 33.2 °F 26.5 °F 29.66 in WSW 12.0 mph 21.0 mph 76% 0.00 in
03:34 33.2 °F 26.8 °F 29.66 in West 10.0 mph 21.0 mph 77% 0.00 in
03:44 33.0 °F 26.9 °F 29.66 in West 6.0 mph 13.0 mph 78% 0.00 in
03:49 33.0 °F 26.9 °F 29.67 in West 8.0 mph 14.0 mph 78% 0.00 in
03:54 32.9 °F 26.8 °F 29.66 in West 9.0 mph 18.0 mph 78% 0.00 in
03:59 32.9 °F 26.8 °F 29.67 in West 8.0 mph 18.0 mph 78% 0.00 in
04:04 32.9 °F 26.8 °F 29.67 in West 7.0 mph 15.0 mph 78% 0.00 in
04:09 32.8 °F 27.0 °F 29.67 in West 5.0 mph 14.0 mph 79% 0.00 in
04:14 32.7 °F 26.9 °F 29.67 in NW 8.0 mph 11.0 mph 79% 0.00 in
04:19 32.6 °F 27.1 °F 29.67 in WNW 7.0 mph 15.0 mph 80% 0.00 in
04:24 32.4 °F 27.2 °F 29.67 in WNW 8.0 mph 15.0 mph 81% 0.00 in
04:29 32.2 °F 27.0 °F 29.67 in NW 6.0 mph 13.0 mph 81% 0.00 in
04:34 32.1 °F 27.2 °F 29.67 in West 3.0 mph 14.0 mph 82% 0.00 in
04:44 31.9 °F 27.0 °F 29.67 in West 5.0 mph 13.0 mph 82% 0.00 in
04:49 31.9 °F 27.0 °F 29.67 in WNW 6.0 mph 13.0 mph 82% 0.00 in
04:54 32.0 °F 27.1 °F 29.67 in West 6.0 mph 13.0 mph 82% 0.00 in
04:59 31.8 °F 26.6 °F 29.67 in West 6.0 mph 13.0 mph 81% 0.00 in
05:04 31.9 °F 26.7 °F 29.67 in West 6.0 mph 13.0 mph 81% 0.00 in
05:14 31.8 °F 26.3 °F 29.67 in West 14.0 mph 16.0 mph 80% 0.00 in
05:19 31.8 °F 25.4 °F 29.67 in West 9.0 mph 22.0 mph 77% 0.00 in
05:24 31.8 °F 25.1 °F 29.67 in WNW 11.0 mph 22.0 mph 76% 0.00 in
05:29 31.8 °F 24.8 °F 29.67 in West 12.0 mph 20.0 mph 75% 0.00 in
05:39 31.8 °F 25.1 °F 29.68 in WNW 9.0 mph 17.0 mph 76% 0.00 in
05:44 31.7 °F 25.0 °F 29.67 in WNW 9.0 mph 15.0 mph 76% 0.00 in
05:49 31.7 °F 25.0 °F 29.67 in NW 8.0 mph 17.0 mph 76% 0.00 in
05:54 31.5 °F 24.8 °F 29.67 in West 8.0 mph 17.0 mph 76% 0.00 in
05:59 31.4 °F 24.4 °F 29.67 in West 9.0 mph 17.0 mph 75% 0.00 in
06:04 31.2 °F 24.2 °F 29.67 in WNW 8.0 mph 17.0 mph 75% 0.00 in
06:14 31.0 °F 23.7 °F 29.67 in West 8.0 mph 17.0 mph 74% 0.00 in
06:19 30.9 °F 23.6 °F 29.67 in West 7.0 mph 18.0 mph 74% 0.00 in
06:24 30.9 °F 23.6 °F 29.67 in West 8.0 mph 18.0 mph 74% 0.00 in
06:29 30.9 °F 23.3 °F 29.68 in NW 14.0 mph 17.0 mph 73% 0.00 in
06:34 30.8 °F 23.2 °F 29.68 in West 2.0 mph 13.0 mph 73% 0.00 in
06:39 30.8 °F 23.2 °F 29.68 in West 3.0 mph 13.0 mph 73% 0.00 in
06:44 30.6 °F 23.0 °F 29.68 in West 6.0 mph 13.0 mph 73% 0.00 in
06:49 30.7 °F 23.1 °F 29.68 in West 3.0 mph 11.0 mph 73% 0.00 in
07:04 30.8 °F 23.5 °F 29.68 in West 5.0 mph 11.0 mph 74% 0.00 in
07:09 30.8 °F 23.5 °F 29.68 in West 5.0 mph 12.0 mph 74% 0.00 in
07:14 30.9 °F 23.3 °F 29.68 in West 5.0 mph 13.0 mph 73% 0.00 in
07:19 31.0 °F 23.4 °F 29.68 in West 6.0 mph 13.0 mph 73% 0.00 in
07:24 31.0 °F 23.7 °F 29.69 in West 3.0 mph 11.0 mph 74% 0.00 in
07:29 31.0 °F 23.7 °F 29.69 in WSW 6.0 mph 13.0 mph 74% 0.00 in
07:34 31.0 °F 23.7 °F 29.69 in West 4.0 mph 9.0 mph 74% 0.00 in
07:39 30.9 °F 23.6 °F 29.69 in WSW 8.0 mph 11.0 mph 74% 0.00 in
07:44 30.9 °F 23.6 °F 29.69 in West 4.0 mph 11.0 mph 74% 0.00 in
07:49 30.9 °F 23.6 °F 29.69 in West 7.0 mph 12.0 mph 74% 0.00 in
07:59 30.9 °F 23.6 °F 29.69 in West 3.0 mph 11.0 mph 74% 0.00 in
08:09 30.8 °F 23.5 °F 29.69 in West 5.0 mph 12.0 mph 74% 0.00 in
08:14 30.6 °F 23.3 °F 29.69 in West 5.0 mph 12.0 mph 74% 0.00 in
08:19 30.6 °F 23.3 °F 29.69 in West 5.0 mph 11.0 mph 74% 0.00 in
08:24 30.6 °F 23.3 °F 29.69 in West 5.0 mph 10.0 mph 74% 0.00 in
08:29 30.7 °F 23.1 °F 29.69 in WSW 5.0 mph 15.0 mph 73% 0.00 in
08:39 30.9 °F 22.9 °F 29.69 in West 4.0 mph 14.0 mph 72% 0.00 in
08:44 31.2 °F 22.9 °F 29.69 in WNW 11.0 mph 17.0 mph 71% 0.00 in
08:49 31.6 °F 22.9 °F 29.69 in NW 9.0 mph 18.0 mph 70% 0.00 in
08:54 32.1 °F 23.1 °F 29.69 in WNW 13.0 mph 17.0 mph 69% 0.00 in
08:59 32.4 °F 23.0 °F 29.69 in West 13.0 mph 16.0 mph 68% 0.00 in
09:04 32.5 °F 22.4 °F 29.69 in West 9.0 mph 19.0 mph 66% 0.00 in
09:09 33.0 °F 22.1 °F 29.69 in West 9.0 mph 19.0 mph 64% 0.00 in
09:19 33.1 °F 23.3 °F 29.69 in West 7.0 mph 17.0 mph 67% 0.00 in
09:24 33.0 °F 23.2 °F 29.69 in West 4.0 mph 13.0 mph 67% 0.00 in
09:29 33.2 °F 23.4 °F 29.69 in SW 11.0 mph 15.0 mph 67% 0.00 in
09:39 33.2 °F 23.1 °F 29.69 in West 9.0 mph 19.0 mph 66% 0.00 in
09:44 33.2 °F 23.4 °F 29.69 in WSW 4.0 mph 21.0 mph 67% 0.00 in
09:49 33.0 °F 24.3 °F 29.69 in WSW 9.0 mph 21.0 mph 70% 0.00 in
09:54 32.6 °F 24.9 °F 29.69 in WSW 8.0 mph 19.0 mph 73% 0.00 in
09:59 32.5 °F 25.1 °F 29.69 in SW 8.0 mph 14.0 mph 74% 0.00 in
10:04 32.6 °F 25.6 °F 29.69 in SW 6.0 mph 13.0 mph 75% 0.00 in
10:09 32.7 °F 25.6 °F 29.69 in WNW 3.0 mph 15.0 mph 75% 0.00 in
10:14 32.8 °F 25.7 °F 29.69 in SW 9.0 mph 14.0 mph 75% 0.00 in
10:24 33.0 °F 26.3 °F 29.69 in West 5.0 mph 17.0 mph 76% 0.00 in
10:29 33.1 °F 26.4 °F 29.69 in West 8.0 mph 16.0 mph 76% 0.00 in
10:34 33.2 °F 26.1 °F 29.69 in West 4.0 mph 15.0 mph 75% 0.00 in
10:39 33.3 °F 26.2 °F 29.69 in WNW 8.0 mph 15.0 mph 75% 0.00 in
10:44 33.5 °F 26.1 °F 29.69 in West 8.0 mph 18.0 mph 74% 0.00 in
10:49 33.7 °F 26.3 °F 29.69 in West 8.0 mph 18.0 mph 74% 0.00 in
10:54 34.0 °F 26.3 °F 29.69 in West 7.0 mph 17.0 mph 73% 0.00 in
10:59 34.0 °F 25.6 °F 29.69 in West 8.0 mph 20.0 mph 71% 0.00 in
11:09 34.0 °F 25.9 °F 29.69 in WSW 5.0 mph 19.0 mph 72% 0.00 in
11:14 34.4 °F 26.3 °F 29.69 in West 8.0 mph 19.0 mph 72% 0.00 in
11:19 34.6 °F 26.2 °F 29.68 in West 7.0 mph 14.0 mph 71% 0.00 in
11:24 34.3 °F 26.9 °F 29.68 in SW 11.0 mph 17.0 mph 74% 0.00 in
11:29 34.0 °F 26.9 °F 29.68 in WSW 12.0 mph 16.0 mph 75% 0.00 in
11:34 33.8 °F 27.0 °F 29.68 in West 6.0 mph 17.0 mph 76% 0.00 in
11:44 33.8 °F 27.0 °F 29.68 in West 9.0 mph 18.0 mph 76% 0.00 in
11:49 33.8 °F 26.4 °F 29.67 in West 9.0 mph 18.0 mph 74% 0.00 in
11:54 34.1 °F 26.7 °F 29.67 in WSW 9.0 mph 20.0 mph 74% 0.00 in
11:59 34.1 °F 25.7 °F 29.67 in WSW 9.0 mph 16.0 mph 71% 0.00 in
12:04 34.3 °F 25.5 °F 29.67 in WSW 7.0 mph 18.0 mph 70% 0.00 in
12:09 34.2 °F 24.7 °F 29.66 in WSW 7.0 mph 20.0 mph 68% 0.00 in
12:14 34.0 °F 25.2 °F 29.66 in West 9.0 mph 20.0 mph 70% 0.00 in
12:19 33.8 °F 26.1 °F 29.66 in West 8.0 mph 16.0 mph 73% 0.00 in
12:24 33.4 °F 26.6 °F 29.66 in WNW 7.0 mph 13.0 mph 76% 0.00 in
12:29 33.5 °F 27.1 °F 29.66 in West 6.0 mph 11.0 mph 77% 0.00 in
12:34 33.7 °F 26.3 °F 29.65 in WSW 8.0 mph 18.0 mph 74% 0.00 in
12:39 33.9 °F 26.2 °F 29.65 in West 7.0 mph 18.0 mph 73% 0.00 in
12:44 34.0 °F 25.2 °F 29.65 in West 14.0 mph 20.0 mph 70% 0.00 in
12:49 34.3 °F 25.5 °F 29.64 in West 9.0 mph 21.0 mph 70% 0.00 in
12:54 34.5 °F 25.4 °F 29.64 in West 9.0 mph 21.0 mph 69% 0.00 in
12:59 34.8 °F 26.0 °F 29.64 in West 9.0 mph 21.0 mph 70% 0.00 in
13:04 34.6 °F 26.5 °F 29.64 in WSW 9.0 mph 23.0 mph 72% 0.00 in
13:09 34.4 °F 26.3 °F 29.64 in West 12.0 mph 19.0 mph 72% 0.00 in
13:14 34.4 °F 26.6 °F 29.63 in SW 5.0 mph 21.0 mph 73% 0.00 in
13:19 34.5 °F 26.4 °F 29.63 in WSW 9.0 mph 21.0 mph 72% 0.00 in
13:24 34.4 °F 26.6 °F 29.63 in WSW 9.0 mph 19.0 mph 73% 0.00 in
13:29 34.4 °F 26.6 °F 29.63 in South 11.0 mph 17.0 mph 73% 0.00 in
13:34 34.4 °F 26.3 °F 29.63 in WSW 14.0 mph 19.0 mph 72% 0.00 in
13:39 34.2 °F 26.1 °F 29.62 in West 13.0 mph 19.0 mph 72% 0.00 in
13:44 34.0 °F 25.9 °F 29.63 in WSW 10.0 mph 19.0 mph 72% 0.00 in
13:49 34.0 °F 25.9 °F 29.63 in West 13.0 mph 21.0 mph 72% 0.00 in
13:54 34.2 °F 26.1 °F 29.63 in WSW 10.0 mph 21.0 mph 72% 0.00 in
13:59 34.3 °F 26.2 °F 29.63 in West 9.0 mph 19.0 mph 72% 0.00 in
14:04 34.0 °F 25.2 °F 29.62 in WSW 10.0 mph 22.0 mph 70% 0.00 in
14:09 33.9 °F 25.1 °F 29.62 in WSW 12.0 mph 23.0 mph 70% 0.00 in
14:14 33.8 °F 25.4 °F 29.62 in WSW 9.0 mph 23.0 mph 71% 0.00 in
14:19 33.7 °F 25.0 °F 29.62 in WSW 8.0 mph 20.0 mph 70% 0.00 in
14:24 33.4 °F 25.0 °F 29.63 in WSW 10.0 mph 25.0 mph 71% 0.00 in
14:29 33.3 °F 25.2 °F 29.63 in West 11.0 mph 25.0 mph 72% 0.00 in
14:34 33.5 °F 25.1 °F 29.62 in WNW 7.0 mph 18.0 mph 71% 0.00 in
14:39 33.4 °F 25.0 °F 29.63 in WSW 7.0 mph 17.0 mph 71% 0.00 in
14:44 33.4 °F 25.3 °F 29.63 in North 5.0 mph 21.0 mph 72% 0.00 in
14:49 33.4 °F 25.0 °F 29.63 in WSW 9.0 mph 25.0 mph 71% 0.00 in
14:54 33.6 °F 25.5 °F 29.62 in WSW 14.0 mph 17.0 mph 72% 0.00 in
14:59 33.7 °F 25.6 °F 29.63 in West 10.0 mph 17.0 mph 72% 0.00 in
15:04 33.7 °F 25.3 °F 29.63 in WSW 10.0 mph 20.0 mph 71% 0.00 in
15:09 33.6 °F 25.5 °F 29.63 in WSW 10.0 mph 21.0 mph 72% 0.00 in
15:14 33.4 °F 25.7 °F 29.63 in SW 10.0 mph 20.0 mph 73% 0.00 in
15:19 33.3 °F 25.9 °F 29.63 in West 8.0 mph 16.0 mph 74% 0.00 in
15:24 33.2 °F 25.5 °F 29.63 in SW 10.0 mph 22.0 mph 73% 0.00 in
15:29 33.1 °F 26.0 °F 29.63 in WSW 9.0 mph 22.0 mph 75% 0.00 in
15:34 33.0 °F 25.9 °F 29.63 in WSW 9.0 mph 23.0 mph 75% 0.00 in
15:39 32.9 °F 25.8 °F 29.63 in WSW 10.0 mph 23.0 mph 75% 0.00 in
15:44 33.0 °F 26.3 °F 29.63 in WSW 6.0 mph 17.0 mph 76% 0.00 in
15:49 32.9 °F 25.8 °F 29.63 in West 10.0 mph 18.0 mph 75% 0.00 in
15:54 32.8 °F 25.7 °F 29.63 in West 8.0 mph 22.0 mph 75% 0.00 in
15:59 32.8 °F 25.7 °F 29.64 in WSW 10.0 mph 22.0 mph 75% 0.00 in
16:04 32.7 °F 25.6 °F 29.64 in WSW 9.0 mph 20.0 mph 75% 0.00 in
16:09 32.6 °F 25.9 °F 29.64 in WSW 9.0 mph 19.0 mph 76% 0.00 in
16:14 32.5 °F 25.5 °F 29.63 in WSW 9.0 mph 19.0 mph 75% 0.00 in
16:19 32.5 °F 25.5 °F 29.64 in West 5.0 mph 15.0 mph 75% 0.00 in
16:24 32.5 °F 25.5 °F 29.64 in WSW 11.0 mph 17.0 mph 75% 0.00 in
16:29 32.5 °F 25.5 °F 29.64 in SW 10.0 mph 22.0 mph 75% 0.00 in
16:34 32.5 °F 25.5 °F 29.64 in West 8.0 mph 22.0 mph 75% 0.00 in
16:39 32.5 °F 25.1 °F 29.64 in SW 5.0 mph 14.0 mph 74% 0.00 in
16:44 32.5 °F 24.8 °F 29.64 in West 9.0 mph 22.0 mph 73% 0.00 in
16:49 32.4 °F 24.7 °F 29.64 in West 7.0 mph 18.0 mph 73% 0.00 in
16:54 32.4 °F 24.7 °F 29.64 in NW 3.0 mph 16.0 mph 73% 0.00 in
16:59 32.4 °F 25.0 °F 29.65 in West 6.0 mph 16.0 mph 74% 0.00 in
17:04 32.4 °F 24.7 °F 29.64 in West 7.0 mph 22.0 mph 73% 0.00 in
17:09 32.4 °F 24.4 °F 29.65 in West 8.0 mph 22.0 mph 72% 0.00 in
17:14 32.3 °F 24.3 °F 29.65 in West 7.0 mph 18.0 mph 72% 0.00 in
17:19 32.3 °F 24.3 °F 29.65 in West 7.0 mph 18.0 mph 72% 0.00 in
17:24 32.4 °F 24.4 °F 29.65 in West 6.0 mph 19.0 mph 72% 0.00 in
17:29 32.3 °F 24.3 °F 29.65 in WNW 4.0 mph 16.0 mph 72% 0.00 in
17:34 32.3 °F 24.3 °F 29.65 in West 9.0 mph 17.0 mph 72% 0.00 in
17:39 32.3 °F 24.3 °F 29.65 in West 8.0 mph 19.0 mph 72% 0.00 in
17:54 32.3 °F 24.3 °F 29.66 in NW 4.0 mph 15.0 mph 72% 0.00 in
17:59 32.3 °F 24.3 °F 29.66 in WSW 10.0 mph 17.0 mph 72% 0.00 in
18:04 32.2 °F 24.2 °F 29.66 in WSW 8.0 mph 17.0 mph 72% 0.00 in
18:09 32.3 °F 24.3 °F 29.66 in WSW 9.0 mph 18.0 mph 72% 0.00 in
18:14 32.2 °F 24.2 °F 29.66 in West 7.0 mph 18.0 mph 72% 0.00 in
18:19 32.2 °F 24.2 °F 29.66 in West 7.0 mph 16.0 mph 72% 0.00 in
18:24 32.2 °F 24.2 °F 29.66 in West 8.0 mph 17.0 mph 72% 0.00 in
18:29 32.1 °F 24.4 °F 29.66 in West 13.0 mph 18.0 mph 73% 0.00 in
18:34 32.0 °F 24.3 °F 29.66 in West 5.0 mph 13.0 mph 73% 0.00 in
18:39 31.9 °F 24.2 °F 29.66 in West 7.0 mph 15.0 mph 73% 0.00 in
18:44 31.8 °F 24.1 °F 29.66 in WNW 9.0 mph 16.0 mph 73% 0.00 in
18:49 31.8 °F 24.1 °F 29.66 in West 7.0 mph 18.0 mph 73% 0.00 in
18:54 31.7 °F 24.0 °F 29.66 in WSW 4.0 mph 17.0 mph 73% 0.00 in
18:59 31.7 °F 24.0 °F 29.66 in WNW 12.0 mph 17.0 mph 73% 0.00 in
19:04 31.7 °F 24.0 °F 29.66 in West 5.0 mph 13.0 mph 73% 0.00 in
19:09 31.6 °F 23.9 °F 29.67 in West 8.0 mph 15.0 mph 73% 0.00 in
19:14 31.7 °F 24.0 °F 29.67 in West 8.0 mph 15.0 mph 73% 0.00 in
19:19 31.6 °F 23.9 °F 29.67 in WSW 7.0 mph 14.0 mph 73% 0.00 in
19:24 31.6 °F 23.9 °F 29.67 in West 6.0 mph 13.0 mph 73% 0.00 in
19:29 31.6 °F 23.9 °F 29.67 in West 7.0 mph 16.0 mph 73% 0.00 in
19:34 31.6 °F 24.3 °F 29.67 in West 6.0 mph 15.0 mph 74% 0.00 in
19:39 31.6 °F 24.3 °F 29.67 in West 6.0 mph 15.0 mph 74% 0.00 in
19:44 31.5 °F 24.2 °F 29.67 in West 7.0 mph 14.0 mph 74% 0.00 in
19:49 31.5 °F 24.2 °F 29.67 in West 11.0 mph 17.0 mph 74% 0.00 in
19:54 31.5 °F 24.2 °F 29.67 in West 4.0 mph 13.0 mph 74% 0.00 in
19:59 31.4 °F 24.1 °F 29.67 in West 10.0 mph 12.0 mph 74% 0.00 in
20:04 31.4 °F 24.4 °F 29.67 in West 5.0 mph 15.0 mph 75% 0.00 in
20:09 31.2 °F 24.8 °F 29.67 in West 7.0 mph 16.0 mph 77% 0.00 in
20:14 31.0 °F 24.9 °F 29.67 in West 7.0 mph 16.0 mph 78% 0.00 in
20:19 30.8 °F 25.4 °F 29.67 in West 3.0 mph 15.0 mph 80% 0.00 in
20:24 30.5 °F 25.4 °F 29.67 in West 9.0 mph 16.0 mph 81% 0.00 in
20:29 30.3 °F 25.5 °F 29.67 in SW 6.0 mph 15.0 mph 82% 0.00 in
20:34 30.1 °F 25.6 °F 29.67 in SW 11.0 mph 15.0 mph 83% 0.00 in
20:39 30.0 °F 25.8 °F 29.67 in West 7.0 mph 15.0 mph 84% 0.00 in
20:44 29.8 °F 25.8 °F 29.67 in West 7.0 mph 15.0 mph 85% 0.00 in
20:49 29.7 °F 25.7 °F 29.67 in West 7.0 mph 14.0 mph 85% 0.00 in
20:54 29.5 °F 25.8 °F 29.67 in West 7.0 mph 14.0 mph 86% 0.00 in
20:59 29.4 °F 25.7 °F 29.67 in WSW 8.0 mph 11.0 mph 86% 0.00 in
21:04 29.3 °F 25.6 °F 29.67 in WSW 4.0 mph 13.0 mph 86% 0.00 in
21:09 29.3 °F 25.6 °F 29.67 in West 7.0 mph 14.0 mph 86% 0.00 in
21:14 29.3 °F 25.6 °F 29.67 in WSW 9.0 mph 13.0 mph 86% 0.00 in
21:19 29.3 °F 25.6 °F 29.67 in WNW 9.0 mph 13.0 mph 86% 0.00 in
21:24 29.3 °F 25.4 °F 29.67 in West 4.0 mph 11.0 mph 85% 0.00 in
21:29 29.3 °F 25.4 °F 29.67 in West 6.0 mph 11.0 mph 85% 0.00 in
21:34 29.3 °F 25.4 °F 29.67 in West 6.0 mph 16.0 mph 85% 0.00 in
21:39 29.4 °F 25.2 °F 29.67 in West 6.0 mph 16.0 mph 84% 0.00 in
21:44 29.5 °F 25.3 °F 29.67 in West 6.0 mph 13.0 mph 84% 0.00 in
21:49 29.5 °F 25.0 °F 29.67 in West 6.0 mph 13.0 mph 83% 0.00 in
21:54 29.6 °F 24.8 °F 29.67 in West 6.0 mph 14.0 mph 82% 0.00 in
21:59 29.8 °F 25.0 °F 29.67 in West 6.0 mph 14.0 mph 82% 0.00 in
22:04 29.8 °F 24.7 °F 29.67 in West 10.0 mph 17.0 mph 81% 0.00 in
22:09 29.9 °F 24.8 °F 29.67 in WSW 7.0 mph 17.0 mph 81% 0.00 in
22:19 30.0 °F 24.6 °F 29.67 in West 9.0 mph 12.0 mph 80% 0.00 in
22:24 29.9 °F 24.8 °F 29.67 in West 5.0 mph 13.0 mph 81% 0.00 in
22:29 29.8 °F 24.7 °F 29.67 in West 3.0 mph 15.0 mph 81% 0.00 in
22:34 29.7 °F 24.6 °F 29.67 in WNW 9.0 mph 16.0 mph 81% 0.00 in
22:39 29.7 °F 24.6 °F 29.67 in West 7.0 mph 16.0 mph 81% 0.00 in
22:44 29.6 °F 24.5 °F 29.67 in West 6.0 mph 15.0 mph 81% 0.00 in
22:49 29.6 °F 24.5 °F 29.67 in West 7.0 mph 15.0 mph 81% 0.00 in
22:54 29.6 °F 24.5 °F 29.67 in West 8.0 mph 16.0 mph 81% 0.00 in
22:59 29.6 °F 24.5 °F 29.67 in West 7.0 mph 16.0 mph 81% 0.00 in
23:04 29.5 °F 24.7 °F 29.66 in West 9.0 mph 11.0 mph 82% 0.00 in
23:09 29.4 °F 24.6 °F 29.67 in WNW 5.0 mph 11.0 mph 82% 0.00 in
23:14 29.4 °F 24.6 °F 29.66 in West 6.0 mph 15.0 mph 82% 0.00 in
23:19 29.3 °F 24.5 °F 29.66 in SW 5.0 mph 14.0 mph 82% 0.00 in
23:24 29.4 °F 24.6 °F 29.66 in West 9.0 mph 15.0 mph 82% 0.00 in
23:29 29.4 °F 24.6 °F 29.66 in WSW 4.0 mph 14.0 mph 82% 0.00 in
23:34 29.4 °F 24.3 °F 29.66 in WNW 5.0 mph 11.0 mph 81% 0.00 in
23:39 29.5 °F 24.4 °F 29.66 in NNW 7.0 mph 12.0 mph 81% 0.00 in
23:44 29.5 °F 24.4 °F 29.66 in West 7.0 mph 10.0 mph 81% 0.00 in
23:49 29.6 °F 24.5 °F 29.66 in West 6.0 mph 12.0 mph 81% 0.00 in
23:54 29.6 °F 24.5 °F 29.67 in West 6.0 mph 12.0 mph 81% 0.00 in
23:59 29.6 °F 24.5 °F 29.66 in WNW 7.0 mph 12.0 mph 81% 0.00 in
Buffalo, New York, USA
Compliments of Weather Underground - 2.25 mb